M65 weather

Wynne Municipal Airport
Wynne, Arkansas, United States

Public forecast

Using degrees Fahrenheit for public forecast. Weather courtesy of forecast.io.

METAR (pilot weather report)

Closest report is West Memphis Municipal Airport, 26.5 nm (49.1 km) ESE. Retrieved 2019/08/25 21:53 UTC (17 minutes ago):

KAWM 252153Z AUTO 14005KT 10SM OVC075 29/24 A2985 RMK AO2 RAB03E12 SLP102 P0001 T02890244

TAF (pilot weather forecast)

Closest forecast is Jonesboro Municipal Airport, 36.5 nm (67.5 km) N. Retrieved 2019/08/25 18:39 UTC (4 hours ago):

TAF KJBR 251737Z 2518/2618 12005KT P6SM VCTS BKN035CB TEMPO 2519/2523 VRB10G20KT 3SM TSRA SCT010 OVC025CB FM260200 14007KT P6SM VCSH BKN040 FM260600 16004KT 6SM BR VCSH BKN010 BKN020 FM261100 17006KT 5SM -DZ BR OVC009 FM261500 19007KT P6SM BKN015 BKN030